sensor_id;sensor_type;location;lat;lon;timestamp;temperature;humidity
21895;DHT22;11112;51.270;7.224;2023-03-04T00:00:05;5.80;97.90
21895;DHT22;11112;51.270;7.224;2023-03-04T00:02:33;5.80;97.80
21895;DHT22;11112;51.270;7.224;2023-03-04T00:05:00;5.80;97.90
21895;DHT22;11112;51.270;7.224;2023-03-04T00:07:28;5.90;97.90
21895;DHT22;11112;51.270;7.224;2023-03-04T00:09:55;5.80;97.90
21895;DHT22;11112;51.270;7.224;2023-03-04T00:12:22;5.80;97.90
21895;DHT22;11112;51.270;7.224;2023-03-04T00:14:49;5.90;98.00
21895;DHT22;11112;51.270;7.224;2023-03-04T00:17:18;5.90;97.90
21895;DHT22;11112;51.270;7.224;2023-03-04T00:19:45;5.90;98.00
21895;DHT22;11112;51.270;7.224;2023-03-04T00:22:12;5.90;97.90
21895;DHT22;11112;51.270;7.224;2023-03-04T00:24:39;5.90;97.90
21895;DHT22;11112;51.270;7.224;2023-03-04T00:27:06;6.00;98.00
21895;DHT22;11112;51.270;7.224;2023-03-04T00:29:33;5.90;97.90
21895;DHT22;11112;51.270;7.224;2023-03-04T00:32:00;6.00;97.90
21895;DHT22;11112;51.270;7.224;2023-03-04T00:34:30;6.00;97.90
21895;DHT22;11112;51.270;7.224;2023-03-04T00:36:57;6.00;97.90
21895;DHT22;11112;51.270;7.224;2023-03-04T00:39:26;6.00;97.80
21895;DHT22;11112;51.270;7.224;2023-03-04T00:41:53;6.00;97.90
21895;DHT22;11112;51.270;7.224;2023-03-04T00:44:20;6.00;97.90
21895;DHT22;11112;51.270;7.224;2023-03-04T00:46:47;6.10;98.00
21895;DHT22;11112;51.270;7.224;2023-03-04T00:49:14;6.00;97.90
21895;DHT22;11112;51.270;7.224;2023-03-04T00:51:45;6.00;97.80
21895;DHT22;11112;51.270;7.224;2023-03-04T00:54:13;6.10;97.90
21895;DHT22;11112;51.270;7.224;2023-03-04T00:56:40;6.10;97.80
21895;DHT22;11112;51.270;7.224;2023-03-04T00:59:07;6.10;97.70
21895;DHT22;11112;51.270;7.224;2023-03-04T01:01:34;6.10;97.60
21895;DHT22;11112;51.270;7.224;2023-03-04T01:04:01;6.10;97.60
21895;DHT22;11112;51.270;7.224;2023-03-04T01:06:28;6.10;97.60
21895;DHT22;11112;51.270;7.224;2023-03-04T01:08:56;6.10;97.40
21895;DHT22;11112;51.270;7.224;2023-03-04T01:11:23;6.10;97.50
21895;DHT22;11112;51.270;7.224;2023-03-04T01:13:50;6.10;97.40
21895;DHT22;11112;51.270;7.224;2023-03-04T01:16:17;6.20;97.60
21895;DHT22;11112;51.270;7.224;2023-03-04T01:18:45;6.20;97.60
21895;DHT22;11112;51.270;7.224;2023-03-04T01:21:12;6.20;97.40
21895;DHT22;11112;51.270;7.224;2023-03-04T01:23:39;6.20;97.40
21895;DHT22;11112;51.270;7.224;2023-03-04T01:26:07;6.20;97.40
21895;DHT22;11112;51.270;7.224;2023-03-04T01:28:35;6.30;97.40
21895;DHT22;11112;51.270;7.224;2023-03-04T01:31:02;6.30;97.40
21895;DHT22;11112;51.270;7.224;2023-03-04T01:33:29;6.30;97.30
21895;DHT22;11112;51.270;7.224;2023-03-04T01:35:56;6.30;97.30
21895;DHT22;11112;51.270;7.224;2023-03-04T01:38:23;6.30;97.10
21895;DHT22;11112;51.270;7.224;2023-03-04T01:40:50;6.30;97.20
21895;DHT22;11112;51.270;7.224;2023-03-04T01:43:22;6.30;97.40
21895;DHT22;11112;51.270;7.224;2023-03-04T01:45:51;6.30;97.30
21895;DHT22;11112;51.270;7.224;2023-03-04T01:48:23;6.30;97.20
21895;DHT22;11112;51.270;7.224;2023-03-04T01:50:51;6.30;97.40
21895;DHT22;11112;51.270;7.224;2023-03-04T01:53:21;6.30;97.20
21895;DHT22;11112;51.270;7.224;2023-03-04T01:55:50;6.30;97.10
21895;DHT22;11112;51.270;7.224;2023-03-04T01:58:19;6.30;97.30
21895;DHT22;11112;51.270;7.224;2023-03-04T02:00:46;6.30;97.50
21895;DHT22;11112;51.270;7.224;2023-03-04T02:03:16;6.30;97.00
21895;DHT22;11112;51.270;7.224;2023-03-04T02:05:47;6.30;97.10
21895;DHT22;11112;51.270;7.224;2023-03-04T02:08:17;6.30;97.00
21895;DHT22;11112;51.270;7.224;2023-03-04T02:10:46;6.30;97.20
21895;DHT22;11112;51.270;7.224;2023-03-04T02:13:15;6.30;97.60
21895;DHT22;11112;51.270;7.224;2023-03-04T02:15:44;6.40;97.10
21895;DHT22;11112;51.270;7.224;2023-03-04T02:18:15;6.40;97.20
21895;DHT22;11112;51.270;7.224;2023-03-04T02:20:50;6.40;97.10
21895;DHT22;11112;51.270;7.224;2023-03-04T02:23:25;6.40;97.10
21895;DHT22;11112;51.270;7.224;2023-03-04T02:26:19;6.40;96.90
21895;DHT22;11112;51.270;7.224;2023-03-04T02:28:49;6.40;97.00
21895;DHT22;11112;51.270;7.224;2023-03-04T02:31:22;6.40;96.90
21895;DHT22;11112;51.270;7.224;2023-03-04T02:33:51;6.40;96.90
21895;DHT22;11112;51.270;7.224;2023-03-04T02:36:21;6.40;97.00
21895;DHT22;11112;51.270;7.224;2023-03-04T02:38:49;6.40;97.10
21895;DHT22;11112;51.270;7.224;2023-03-04T02:41:21;6.40;97.20
21895;DHT22;11112;51.270;7.224;2023-03-04T02:43:52;6.40;97.10
21895;DHT22;11112;51.270;7.224;2023-03-04T02:46:21;6.50;97.20
21895;DHT22;11112;51.270;7.224;2023-03-04T02:48:52;6.40;97.10
21895;DHT22;11112;51.270;7.224;2023-03-04T02:51:19;6.50;97.10
21895;DHT22;11112;51.270;7.224;2023-03-04T02:53:46;6.50;97.20
21895;DHT22;11112;51.270;7.224;2023-03-04T02:56:13;6.40;97.10
21895;DHT22;11112;51.270;7.224;2023-03-04T02:58:42;6.50;97.10
21895;DHT22;11112;51.270;7.224;2023-03-04T03:01:09;6.40;96.90
21895;DHT22;11112;51.270;7.224;2023-03-04T03:03:37;6.40;97.10
21895;DHT22;11112;51.270;7.224;2023-03-04T03:06:04;6.50;97.10
21895;DHT22;11112;51.270;7.224;2023-03-04T03:08:32;6.50;97.10
21895;DHT22;11112;51.270;7.224;2023-03-04T03:10:59;6.50;97.10
21895;DHT22;11112;51.270;7.224;2023-03-04T03:13:26;6.50;97.10
21895;DHT22;11112;51.270;7.224;2023-03-04T03:15:54;6.50;97.20
21895;DHT22;11112;51.270;7.224;2023-03-04T03:18:22;6.50;97.00
21895;DHT22;11112;51.270;7.224;2023-03-04T03:20:48;6.50;96.90
21895;DHT22;11112;51.270;7.224;2023-03-04T03:23:16;6.50;97.00
21895;DHT22;11112;51.270;7.224;2023-03-04T03:25:45;6.50;96.90
21895;DHT22;11112;51.270;7.224;2023-03-04T03:28:12;6.40;96.90
21895;DHT22;11112;51.270;7.224;2023-03-04T03:30:39;6.40;97.10
21895;DHT22;11112;51.270;7.224;2023-03-04T03:33:07;6.30;97.00
21895;DHT22;11112;51.270;7.224;2023-03-04T03:35:35;6.30;97.20
21895;DHT22;11112;51.270;7.224;2023-03-04T03:38:02;6.40;97.20
21895;DHT22;11112;51.270;7.224;2023-03-04T03:40:29;6.40;97.10
21895;DHT22;11112;51.270;7.224;2023-03-04T03:42:56;6.40;97.20
21895;DHT22;11112;51.270;7.224;2023-03-04T03:45:23;6.40;97.10
21895;DHT22;11112;51.270;7.224;2023-03-04T03:47:50;6.50;97.10
21895;DHT22;11112;51.270;7.224;2023-03-04T03:50:18;6.50;97.20
21895;DHT22;11112;51.270;7.224;2023-03-04T03:52:46;6.50;97.10
21895;DHT22;11112;51.270;7.224;2023-03-04T03:55:13;6.50;97.10
21895;DHT22;11112;51.270;7.224;2023-03-04T03:57:40;6.50;97.10
21895;DHT22;11112;51.270;7.224;2023-03-04T04:00:08;6.50;96.90
21895;DHT22;11112;51.270;7.224;2023-03-04T04:02:36;6.50;96.80
21895;DHT22;11112;51.270;7.224;2023-03-04T04:05:04;6.50;96.80
21895;DHT22;11112;51.270;7.224;2023-03-04T04:07:33;6.40;96.80
21895;DHT22;11112;51.270;7.224;2023-03-04T04:10:01;6.40;96.90
21895;DHT22;11112;51.270;7.224;2023-03-04T04:12:29;6.40;97.00
21895;DHT22;11112;51.270;7.224;2023-03-04T04:14:56;6.40;97.10
21895;DHT22;11112;51.270;7.224;2023-03-04T04:17:23;6.50;97.00
21895;DHT22;11112;51.270;7.224;2023-03-04T04:19:50;6.50;97.00
21895;DHT22;11112;51.270;7.224;2023-03-04T04:22:19;6.50;96.90
21895;DHT22;11112;51.270;7.224;2023-03-04T04:24:48;6.50;96.90
21895;DHT22;11112;51.270;7.224;2023-03-04T04:27:15;6.50;96.90
21895;DHT22;11112;51.270;7.224;2023-03-04T04:29:43;6.50;96.90
21895;DHT22;11112;51.270;7.224;2023-03-04T04:32:10;6.50;96.80
21895;DHT22;11112;51.270;7.224;2023-03-04T04:34:37;6.60;96.90
21895;DHT22;11112;51.270;7.224;2023-03-04T04:37:05;6.60;96.80
21895;DHT22;11112;51.270;7.224;2023-03-04T04:39:32;6.60;96.80
21895;DHT22;11112;51.270;7.224;2023-03-04T04:42:00;6.60;96.80
21895;DHT22;11112;51.270;7.224;2023-03-04T04:44:30;6.60;96.70
21895;DHT22;11112;51.270;7.224;2023-03-04T04:46:57;6.60;96.80
21895;DHT22;11112;51.270;7.224;2023-03-04T04:49:24;6.60;96.80
21895;DHT22;11112;51.270;7.224;2023-03-04T04:51:52;6.60;96.80
21895;DHT22;11112;51.270;7.224;2023-03-04T04:54:19;6.60;96.80
21895;DHT22;11112;51.270;7.224;2023-03-04T04:56:46;6.60;96.80
21895;DHT22;11112;51.270;7.224;2023-03-04T04:59:15;6.60;96.70
21895;DHT22;11112;51.270;7.224;2023-03-04T05:01:42;6.60;96.80
21895;DHT22;11112;51.270;7.224;2023-03-04T05:04:09;6.60;97.10
21895;DHT22;11112;51.270;7.224;2023-03-04T05:06:36;6.60;96.80
21895;DHT22;11112;51.270;7.224;2023-03-04T05:09:03;6.60;96.80
21895;DHT22;11112;51.270;7.224;2023-03-04T05:11:31;6.60;96.70
21895;DHT22;11112;51.270;7.224;2023-03-04T05:13:58;6.60;96.70
21895;DHT22;11112;51.270;7.224;2023-03-04T05:16:27;6.60;96.70
21895;DHT22;11112;51.270;7.224;2023-03-04T05:18:54;6.60;96.60
21895;DHT22;11112;51.270;7.224;2023-03-04T05:21:21;6.60;96.60
21895;DHT22;11112;51.270;7.224;2023-03-04T05:23:48;6.60;96.60
21895;DHT22;11112;51.270;7.224;2023-03-04T05:26:17;6.60;96.60
21895;DHT22;11112;51.270;7.224;2023-03-04T05:28:44;6.50;96.80
21895;DHT22;11112;51.270;7.224;2023-03-04T05:31:12;6.50;96.80
21895;DHT22;11112;51.270;7.224;2023-03-04T05:33:40;6.50;96.80
21895;DHT22;11112;51.270;7.224;2023-03-04T05:36:08;6.50;96.90
21895;DHT22;11112;51.270;7.224;2023-03-04T05:38:35;6.50;97.00
21895;DHT22;11112;51.270;7.224;2023-03-04T05:41:05;6.50;97.00
21895;DHT22;11112;51.270;7.224;2023-03-04T05:43:33;6.50;96.90
21895;DHT22;11112;51.270;7.224;2023-03-04T05:46:00;6.50;97.00
21895;DHT22;11112;51.270;7.224;2023-03-04T05:48:28;6.50;97.10
21895;DHT22;11112;51.270;7.224;2023-03-04T05:50:58;6.50;97.20
21895;DHT22;11112;51.270;7.224;2023-03-04T05:53:27;6.60;97.20
21895;DHT22;11112;51.270;7.224;2023-03-04T05:55:55;6.60;97.10
21895;DHT22;11112;51.270;7.224;2023-03-04T05:58:23;6.60;97.10
21895;DHT22;11112;51.270;7.224;2023-03-04T06:00:51;6.60;97.10
21895;DHT22;11112;51.270;7.224;2023-03-04T06:03:20;6.60;97.10
21895;DHT22;11112;51.270;7.224;2023-03-04T06:05:48;6.60;97.10
21895;DHT22;11112;51.270;7.224;2023-03-04T06:08:16;6.60;97.10
21895;DHT22;11112;51.270;7.224;2023-03-04T06:10:43;6.60;97.00
21895;DHT22;11112;51.270;7.224;2023-03-04T06:13:10;6.50;97.00
21895;DHT22;11112;51.270;7.224;2023-03-04T06:15:38;6.50;97.10
21895;DHT22;11112;51.270;7.224;2023-03-04T06:18:06;6.50;97.20
21895;DHT22;11112;51.270;7.224;2023-03-04T06:20:33;6.60;97.10
21895;DHT22;11112;51.270;7.224;2023-03-04T06:23:01;6.50;97.20
21895;DHT22;11112;51.270;7.224;2023-03-04T06:25:30;6.50;97.30
21895;DHT22;11112;51.270;7.224;2023-03-04T06:27:57;6.50;97.20
21895;DHT22;11112;51.270;7.224;2023-03-04T06:30:24;6.50;97.20
21895;DHT22;11112;51.270;7.224;2023-03-04T06:32:51;6.60;97.30
21895;DHT22;11112;51.270;7.224;2023-03-04T06:35:19;6.60;97.20
21895;DHT22;11112;51.270;7.224;2023-03-04T06:37:46;6.60;97.20
21895;DHT22;11112;51.270;7.224;2023-03-04T06:40:14;6.50;97.20
21895;DHT22;11112;51.270;7.224;2023-03-04T06:42:42;6.40;97.20
21895;DHT22;11112;51.270;7.224;2023-03-04T06:45:12;6.50;97.40
21895;DHT22;11112;51.270;7.224;2023-03-04T06:47:39;6.50;97.40
21895;DHT22;11112;51.270;7.224;2023-03-04T06:50:09;6.50;97.40
21895;DHT22;11112;51.270;7.224;2023-03-04T06:52:37;6.50;97.40
21895;DHT22;11112;51.270;7.224;2023-03-04T06:55:06;6.50;97.40
21895;DHT22;11112;51.270;7.224;2023-03-04T06:57:33;6.50;97.30
21895;DHT22;11112;51.270;7.224;2023-03-04T07:00:02;6.50;97.40
21895;DHT22;11112;51.270;7.224;2023-03-04T07:02:30;6.60;97.60
21895;DHT22;11112;51.270;7.224;2023-03-04T07:04:57;6.60;97.40
21895;DHT22;11112;51.270;7.224;2023-03-04T07:07:24;6.60;97.40
21895;DHT22;11112;51.270;7.224;2023-03-04T07:09:52;6.60;97.40
21895;DHT22;11112;51.270;7.224;2023-03-04T07:12:19;6.60;97.40
21895;DHT22;11112;51.270;7.224;2023-03-04T07:14:46;6.60;97.40
21895;DHT22;11112;51.270;7.224;2023-03-04T07:17:14;6.60;97.50
21895;DHT22;11112;51.270;7.224;2023-03-04T07:19:41;6.60;97.50
21895;DHT22;11112;51.270;7.224;2023-03-04T07:22:09;6.60;97.70
21895;DHT22;11112;51.270;7.224;2023-03-04T07:24:36;6.60;97.50
21895;DHT22;11112;51.270;7.224;2023-03-04T07:27:03;6.60;97.60
21895;DHT22;11112;51.270;7.224;2023-03-04T07:29:30;6.60;97.40
21895;DHT22;11112;51.270;7.224;2023-03-04T07:31:57;6.60;97.40
21895;DHT22;11112;51.270;7.224;2023-03-04T07:34:25;6.60;97.50
21895;DHT22;11112;51.270;7.224;2023-03-04T07:36:52;6.70;97.70
21895;DHT22;11112;51.270;7.224;2023-03-04T07:39:19;6.70;97.70
21895;DHT22;11112;51.270;7.224;2023-03-04T07:41:47;6.70;97.60
21895;DHT22;11112;51.270;7.224;2023-03-04T07:44:14;6.70;97.50
21895;DHT22;11112;51.270;7.224;2023-03-04T07:46:41;6.70;97.70
21895;DHT22;11112;51.270;7.224;2023-03-04T07:49:10;6.70;97.40
21895;DHT22;11112;51.270;7.224;2023-03-04T07:51:40;6.70;97.30
21895;DHT22;11112;51.270;7.224;2023-03-04T07:54:09;6.70;97.30
21895;DHT22;11112;51.270;7.224;2023-03-04T07:56:36;6.70;97.40
21895;DHT22;11112;51.270;7.224;2023-03-04T07:59:03;6.70;97.50
21895;DHT22;11112;51.270;7.224;2023-03-04T08:01:32;6.70;97.50
21895;DHT22;11112;51.270;7.224;2023-03-04T08:04:01;6.70;97.60
21895;DHT22;11112;51.270;7.224;2023-03-04T08:06:30;6.70;97.50
21895;DHT22;11112;51.270;7.224;2023-03-04T08:09:00;6.80;97.70
21895;DHT22;11112;51.270;7.224;2023-03-04T08:11:29;6.80;97.60
21895;DHT22;11112;51.270;7.224;2023-03-04T08:13:56;6.70;97.60
21895;DHT22;11112;51.270;7.224;2023-03-04T08:16:24;6.70;97.90
21895;DHT22;11112;51.270;7.224;2023-03-04T08:18:53;6.70;97.80
21895;DHT22;11112;51.270;7.224;2023-03-04T08:21:23;6.80;97.80
21895;DHT22;11112;51.270;7.224;2023-03-04T08:23:51;6.80;98.00
21895;DHT22;11112;51.270;7.224;2023-03-04T08:26:23;6.80;98.00
21895;DHT22;11112;51.270;7.224;2023-03-04T08:28:52;6.80;98.10
21895;DHT22;11112;51.270;7.224;2023-03-04T08:31:21;6.80;98.20
21895;DHT22;11112;51.270;7.224;2023-03-04T08:33:48;6.80;98.30
21895;DHT22;11112;51.270;7.224;2023-03-04T08:36:17;6.90;98.40
21895;DHT22;11112;51.270;7.224;2023-03-04T08:38:44;6.90;98.40
21895;DHT22;11112;51.270;7.224;2023-03-04T08:41:12;6.90;98.40
21895;DHT22;11112;51.270;7.224;2023-03-04T08:43:41;6.90;98.50
21895;DHT22;11112;51.270;7.224;2023-03-04T08:46:09;6.90;98.60
21895;DHT22;11112;51.270;7.224;2023-03-04T08:48:36;7.00;98.80
21895;DHT22;11112;51.270;7.224;2023-03-04T08:51:07;7.00;98.80
21895;DHT22;11112;51.270;7.224;2023-03-04T08:53:34;7.00;98.70
21895;DHT22;11112;51.270;7.224;2023-03-04T08:56:02;7.00;98.70
21895;DHT22;11112;51.270;7.224;2023-03-04T08:58:29;7.00;98.80
21895;DHT22;11112;51.270;7.224;2023-03-04T09:00:59;7.00;98.80
21895;DHT22;11112;51.270;7.224;2023-03-04T09:03:27;7.00;98.70
21895;DHT22;11112;51.270;7.224;2023-03-04T09:05:54;7.00;98.60
21895;DHT22;11112;51.270;7.224;2023-03-04T09:08:21;7.00;98.60
21895;DHT22;11112;51.270;7.224;2023-03-04T09:10:51;7.00;98.70
21895;DHT22;11112;51.270;7.224;2023-03-04T09:13:19;7.00;98.80
21895;DHT22;11112;51.270;7.224;2023-03-04T09:15:47;7.00;98.70
21895;DHT22;11112;51.270;7.224;2023-03-04T09:18:20;7.00;98.70
21895;DHT22;11112;51.270;7.224;2023-03-04T09:20:47;7.00;98.80
21895;DHT22;11112;51.270;7.224;2023-03-04T09:23:15;7.00;98.80
21895;DHT22;11112;51.270;7.224;2023-03-04T09:25:44;7.00;98.70
21895;DHT22;11112;51.270;7.224;2023-03-04T09:28:12;7.00;98.80
21895;DHT22;11112;51.270;7.224;2023-03-04T09:30:40;7.10;98.90
21895;DHT22;11112;51.270;7.224;2023-03-04T09:33:07;7.10;98.90
21895;DHT22;11112;51.270;7.224;2023-03-04T09:35:36;7.10;98.90
21895;DHT22;11112;51.270;7.224;2023-03-04T09:38:03;7.10;99.10
21895;DHT22;11112;51.270;7.224;2023-03-04T09:40:36;7.10;99.00
21895;DHT22;11112;51.270;7.224;2023-03-04T09:43:11;7.10;99.00
21895;DHT22;11112;51.270;7.224;2023-03-04T09:45:48;7.10;99.10
21895;DHT22;11112;51.270;7.224;2023-03-04T09:48:19;7.10;99.00
21895;DHT22;11112;51.270;7.224;2023-03-04T09:50:57;7.10;99.10
21895;DHT22;11112;51.270;7.224;2023-03-04T09:53:33;7.10;99.30
21895;DHT22;11112;51.270;7.224;2023-03-04T09:58:41;7.10;99.80
21895;DHT22;11112;51.270;7.224;2023-03-04T10:01:19;7.10;99.90
21895;DHT22;11112;51.270;7.224;2023-03-04T10:03:53;7.10;99.90
21895;DHT22;11112;51.270;7.224;2023-03-04T10:06:24;7.10;99.90
21895;DHT22;11112;51.270;7.224;2023-03-04T10:08:54;7.10;99.90
21895;DHT22;11112;51.270;7.224;2023-03-04T10:11:26;7.10;99.90
21895;DHT22;11112;51.270;7.224;2023-03-04T10:14:03;7.10;99.90
21895;DHT22;11112;51.270;7.224;2023-03-04T10:16:39;7.10;99.90
21895;DHT22;11112;51.270;7.224;2023-03-04T10:19:29;7.10;99.90
21895;DHT22;11112;51.270;7.224;2023-03-04T10:22:15;7.10;99.90
21895;DHT22;11112;51.270;7.224;2023-03-04T10:24:46;7.10;99.90
21895;DHT22;11112;51.270;7.224;2023-03-04T10:27:16;7.10;99.90
21895;DHT22;11112;51.270;7.224;2023-03-04T10:29:44;7.10;99.90
21895;DHT22;11112;51.270;7.224;2023-03-04T10:32:13;7.10;99.90
21895;DHT22;11112;51.270;7.224;2023-03-04T10:34:43;7.20;99.90
21895;DHT22;11112;51.270;7.224;2023-03-04T10:37:11;7.20;99.90
21895;DHT22;11112;51.270;7.224;2023-03-04T10:39:40;7.20;99.90
21895;DHT22;11112;51.270;7.224;2023-03-04T10:42:25;7.20;99.90
21895;DHT22;11112;51.270;7.224;2023-03-04T10:44:56;7.20;99.90
21895;DHT22;11112;51.270;7.224;2023-03-04T10:47:27;7.20;99.90
21895;DHT22;11112;51.270;7.224;2023-03-04T10:49:57;7.20;99.90
21895;DHT22;11112;51.270;7.224;2023-03-04T10:52:29;7.20;99.90
21895;DHT22;11112;51.270;7.224;2023-03-04T10:54:58;7.20;99.90
21895;DHT22;11112;51.270;7.224;2023-03-04T10:57:33;7.20;99.90
21895;DHT22;11112;51.270;7.224;2023-03-04T11:00:03;7.20;99.90
21895;DHT22;11112;51.270;7.224;2023-03-04T11:02:47;7.30;99.90
21895;DHT22;11112;51.270;7.224;2023-03-04T11:05:18;7.30;99.90
21895;DHT22;11112;51.270;7.224;2023-03-04T11:07:49;7.30;99.90
21895;DHT22;11112;51.270;7.224;2023-03-04T11:10:19;7.20;99.90
21895;DHT22;11112;51.270;7.224;2023-03-04T11:12:48;7.30;99.90
21895;DHT22;11112;51.270;7.224;2023-03-04T11:15:18;7.30;99.90
21895;DHT22;11112;51.270;7.224;2023-03-04T11:17:52;7.30;99.90
21895;DHT22;11112;51.270;7.224;2023-03-04T11:20:32;7.30;99.90
21895;DHT22;11112;51.270;7.224;2023-03-04T11:23:05;7.30;99.90
21895;DHT22;11112;51.270;7.224;2023-03-04T11:25:41;7.30;99.90
21895;DHT22;11112;51.270;7.224;2023-03-04T11:28:14;7.30;99.90
21895;DHT22;11112;51.270;7.224;2023-03-04T11:30:48;7.40;99.90
21895;DHT22;11112;51.270;7.224;2023-03-04T11:33:25;7.40;99.90
21895;DHT22;11112;51.270;7.224;2023-03-04T11:36:05;7.40;99.90
21895;DHT22;11112;51.270;7.224;2023-03-04T11:38:43;7.40;99.90
21895;DHT22;11112;51.270;7.224;2023-03-04T11:41:16;7.40;99.90
21895;DHT22;11112;51.270;7.224;2023-03-04T11:43:47;7.30;99.90
21895;DHT22;11112;51.270;7.224;2023-03-04T11:49:52;7.40;99.90
21895;DHT22;11112;51.270;7.224;2023-03-04T11:52:34;7.40;99.90
21895;DHT22;11112;51.270;7.224;2023-03-04T11:55:15;7.40;99.90
21895;DHT22;11112;51.270;7.224;2023-03-04T11:57:58;7.40;99.90
21895;DHT22;11112;51.270;7.224;2023-03-04T12:00:37;7.40;99.90
21895;DHT22;11112;51.270;7.224;2023-03-04T12:03:14;7.40;99.90
21895;DHT22;11112;51.270;7.224;2023-03-04T12:05:55;7.40;99.90
21895;DHT22;11112;51.270;7.224;2023-03-04T12:08:36;7.40;99.90
21895;DHT22;11112;51.270;7.224;2023-03-04T12:11:10;7.50;99.90
21895;DHT22;11112;51.270;7.224;2023-03-04T12:20:20;7.50;99.90
21895;DHT22;11112;51.270;7.224;2023-03-04T12:23:01;7.50;99.90
21895;DHT22;11112;51.270;7.224;2023-03-04T12:25:42;7.50;99.90
21895;DHT22;11112;51.270;7.224;2023-03-04T12:28:29;7.50;99.90
21895;DHT22;11112;51.270;7.224;2023-03-04T12:31:15;7.50;99.90
21895;DHT22;11112;51.270;7.224;2023-03-04T12:34:13;7.50;99.90
21895;DHT22;11112;51.270;7.224;2023-03-04T12:43:10;7.50;99.90
21895;DHT22;11112;51.270;7.224;2023-03-04T12:45:56;7.50;99.90
21895;DHT22;11112;51.270;7.224;2023-03-04T12:48:31;7.60;99.90
21895;DHT22;11112;51.270;7.224;2023-03-04T12:51:21;7.50;99.90
21895;DHT22;11112;51.270;7.224;2023-03-04T12:54:03;7.50;99.90
21895;DHT22;11112;51.270;7.224;2023-03-04T12:56:42;7.60;99.90
21895;DHT22;11112;51.270;7.224;2023-03-04T12:59:15;7.60;99.90
21895;DHT22;11112;51.270;7.224;2023-03-04T13:01:49;7.60;99.90
21895;DHT22;11112;51.270;7.224;2023-03-04T13:04:25;7.60;99.90
21895;DHT22;11112;51.270;7.224;2023-03-04T13:07:06;7.60;99.90
21895;DHT22;11112;51.270;7.224;2023-03-04T13:09:42;7.60;99.90
21895;DHT22;11112;51.270;7.224;2023-03-04T13:12:16;7.60;99.90
21895;DHT22;11112;51.270;7.224;2023-03-04T13:15:16;7.60;99.90
21895;DHT22;11112;51.270;7.224;2023-03-04T13:17:51;7.60;99.90
21895;DHT22;11112;51.270;7.224;2023-03-04T13:20:24;7.60;99.90
21895;DHT22;11112;51.270;7.224;2023-03-04T13:23:00;7.60;99.90
21895;DHT22;11112;51.270;7.224;2023-03-04T13:25:35;7.60;99.90
21895;DHT22;11112;51.270;7.224;2023-03-04T13:28:22;7.70;99.90
21895;DHT22;11112;51.270;7.224;2023-03-04T13:31:21;7.60;99.90
21895;DHT22;11112;51.270;7.224;2023-03-04T13:34:09;7.60;99.90
21895;DHT22;11112;51.270;7.224;2023-03-04T13:37:32;7.60;99.90
21895;DHT22;11112;51.270;7.224;2023-03-04T13:40:34;7.60;99.90
21895;DHT22;11112;51.270;7.224;2023-03-04T13:43:23;7.70;99.90
21895;DHT22;11112;51.270;7.224;2023-03-04T13:45:52;7.70;99.90
21895;DHT22;11112;51.270;7.224;2023-03-04T13:48:25;7.60;99.90
21895;DHT22;11112;51.270;7.224;2023-03-04T13:50:57;7.60;99.90
21895;DHT22;11112;51.270;7.224;2023-03-04T13:53:40;7.60;99.90
21895;DHT22;11112;51.270;7.224;2023-03-04T13:56:28;7.60;99.90
21895;DHT22;11112;51.270;7.224;2023-03-04T13:59:19;7.60;99.90
21895;DHT22;11112;51.270;7.224;2023-03-04T14:01:59;7.70;99.90
21895;DHT22;11112;51.270;7.224;2023-03-04T14:04:30;7.70;99.90
21895;DHT22;11112;51.270;7.224;2023-03-04T14:07:02;7.70;99.90
21895;DHT22;11112;51.270;7.224;2023-03-04T14:09:32;7.70;99.90
21895;DHT22;11112;51.270;7.224;2023-03-04T14:12:01;7.70;99.90
21895;DHT22;11112;51.270;7.224;2023-03-04T14:14:34;7.70;99.90
21895;DHT22;11112;51.270;7.224;2023-03-04T14:17:14;7.70;99.90
21895;DHT22;11112;51.270;7.224;2023-03-04T14:19:45;7.70;99.90
21895;DHT22;11112;51.270;7.224;2023-03-04T14:22:23;7.70;99.90
21895;DHT22;11112;51.270;7.224;2023-03-04T14:24:58;7.70;99.90
21895;DHT22;11112;51.270;7.224;2023-03-04T14:27:27;7.70;99.90
21895;DHT22;11112;51.270;7.224;2023-03-04T14:29:56;7.70;99.90
21895;DHT22;11112;51.270;7.224;2023-03-04T14:32:24;7.70;99.90
21895;DHT22;11112;51.270;7.224;2023-03-04T14:34:55;7.70;99.90
21895;DHT22;11112;51.270;7.224;2023-03-04T14:37:30;7.70;99.90
21895;DHT22;11112;51.270;7.224;2023-03-04T14:40:01;7.70;99.90
21895;DHT22;11112;51.270;7.224;2023-03-04T14:42:35;7.70;99.90
21895;DHT22;11112;51.270;7.224;2023-03-04T14:45:08;7.70;99.90
21895;DHT22;11112;51.270;7.224;2023-03-04T14:47:40;7.70;99.90
21895;DHT22;11112;51.270;7.224;2023-03-04T14:50:12;7.80;99.90
21895;DHT22;11112;51.270;7.224;2023-03-04T14:52:44;7.70;99.90
21895;DHT22;11112;51.270;7.224;2023-03-04T14:55:22;7.70;99.90
21895;DHT22;11112;51.270;7.224;2023-03-04T14:57:51;7.70;99.90
21895;DHT22;11112;51.270;7.224;2023-03-04T15:00:29;7.70;99.90
21895;DHT22;11112;51.270;7.224;2023-03-04T15:02:58;7.70;99.90
21895;DHT22;11112;51.270;7.224;2023-03-04T15:05:28;7.70;99.90
21895;DHT22;11112;51.270;7.224;2023-03-04T15:07:59;7.70;99.90
21895;DHT22;11112;51.270;7.224;2023-03-04T15:10:28;7.70;99.90
21895;DHT22;11112;51.270;7.224;2023-03-04T15:12:59;7.70;99.90
21895;DHT22;11112;51.270;7.224;2023-03-04T15:15:47;7.70;99.90
21895;DHT22;11112;51.270;7.224;2023-03-04T15:18:19;7.70;99.90
21895;DHT22;11112;51.270;7.224;2023-03-04T15:20:55;7.70;99.90
21895;DHT22;11112;51.270;7.224;2023-03-04T15:23:27;7.70;99.90
21895;DHT22;11112;51.270;7.224;2023-03-04T15:25:57;7.80;99.90
21895;DHT22;11112;51.270;7.224;2023-03-04T15:28:27;7.70;99.90
21895;DHT22;11112;51.270;7.224;2023-03-04T15:30:57;7.70;99.90
21895;DHT22;11112;51.270;7.224;2023-03-04T15:33:24;7.70;99.90
21895;DHT22;11112;51.270;7.224;2023-03-04T15:35:53;7.80;99.90
21895;DHT22;11112;51.270;7.224;2023-03-04T15:38:22;7.70;99.90
21895;DHT22;11112;51.270;7.224;2023-03-04T15:40:52;7.70;99.90
21895;DHT22;11112;51.270;7.224;2023-03-04T15:43:24;7.70;99.90
21895;DHT22;11112;51.270;7.224;2023-03-04T15:45:52;7.80;99.90
21895;DHT22;11112;51.270;7.224;2023-03-04T15:48:19;7.80;99.90
21895;DHT22;11112;51.270;7.224;2023-03-04T15:50:48;7.80;99.90
21895;DHT22;11112;51.270;7.224;2023-03-04T15:53:25;7.80;99.90
21895;DHT22;11112;51.270;7.224;2023-03-04T15:55:55;7.80;99.90
21895;DHT22;11112;51.270;7.224;2023-03-04T15:58:22;7.80;99.90
21895;DHT22;11112;51.270;7.224;2023-03-04T16:00:50;7.80;99.90
21895;DHT22;11112;51.270;7.224;2023-03-04T16:03:18;7.80;99.90
21895;DHT22;11112;51.270;7.224;2023-03-04T16:05:49;7.80;99.90
21895;DHT22;11112;51.270;7.224;2023-03-04T16:08:19;7.80;99.90
21895;DHT22;11112;51.270;7.224;2023-03-04T16:10:47;7.80;99.90
21895;DHT22;11112;51.270;7.224;2023-03-04T16:13:17;7.80;99.90
21895;DHT22;11112;51.270;7.224;2023-03-04T16:15:46;7.90;99.90
21895;DHT22;11112;51.270;7.224;2023-03-04T16:18:14;7.80;99.90
21895;DHT22;11112;51.270;7.224;2023-03-04T16:20:44;7.80;99.90
21895;DHT22;11112;51.270;7.224;2023-03-04T16:23:13;7.80;99.90
21895;DHT22;11112;51.270;7.224;2023-03-04T16:25:42;7.80;99.90